sensor_id;sensor_type;location;lat;lon;timestamp;pressure;altitude;pressure_sealevel;temperature;humidity
62124;BME280;48110;47.532;19.078;2023-02-24T00:02:49;100192.78;;;7.82;86.73
62124;BME280;48110;47.532;19.078;2023-02-24T00:05:55;100191.09;;;7.81;88.33
62124;BME280;48110;47.532;19.078;2023-02-24T00:09:01;100184.16;;;7.80;89.57
62124;BME280;48110;47.532;19.078;2023-02-24T00:12:06;100183.50;;;7.78;86.47
62124;BME280;48110;47.532;19.078;2023-02-24T00:15:10;100180.63;;;7.71;86.40
62124;BME280;48110;47.532;19.078;2023-02-24T00:18:19;100179.66;;;7.72;85.42
62124;BME280;48110;47.532;19.078;2023-02-24T00:21:26;100180.97;;;7.68;86.72
62124;BME280;48110;47.532;19.078;2023-02-24T00:24:35;100180.13;;;7.68;86.23
62124;BME280;48110;47.532;19.078;2023-02-24T00:27:49;100175.72;;;7.76;88.17
62124;BME280;48110;47.532;19.078;2023-02-24T00:31:01;100178.09;;;7.62;87.66
62124;BME280;48110;47.532;19.078;2023-02-24T00:34:11;100168.81;;;7.58;90.35
62124;BME280;48110;47.532;19.078;2023-02-24T00:37:19;100158.72;;;7.53;91.76
62124;BME280;48110;47.532;19.078;2023-02-24T00:40:29;100169.94;;;7.55;97.34
62124;BME280;48110;47.532;19.078;2023-02-24T00:43:36;100161.91;;;7.39;97.23
62124;BME280;48110;47.532;19.078;2023-02-24T00:46:45;100156.78;;;7.37;97.79
62124;BME280;48110;47.532;19.078;2023-02-24T00:49:57;100154.38;;;7.26;98.10
62124;BME280;48110;47.532;19.078;2023-02-24T00:53:09;100147.59;;;7.24;98.87
62124;BME280;48110;47.532;19.078;2023-02-24T00:56:19;100139.00;;;7.22;100.00
62124;BME280;48110;47.532;19.078;2023-02-24T00:59:26;100143.91;;;7.17;100.00
62124;BME280;48110;47.532;19.078;2023-02-24T01:02:33;100141.06;;;7.10;100.00
62124;BME280;48110;47.532;19.078;2023-02-24T01:05:42;100144.69;;;7.09;100.00
62124;BME280;48110;47.532;19.078;2023-02-24T01:08:51;100133.75;;;7.04;100.00
62124;BME280;48110;47.532;19.078;2023-02-24T01:11:56;100125.16;;;7.02;100.00
62124;BME280;48110;47.532;19.078;2023-02-24T01:15:20;100123.50;;;7.01;100.00
62124;BME280;48110;47.532;19.078;2023-02-24T01:18:27;100118.53;;;6.98;100.00
62124;BME280;48110;47.532;19.078;2023-02-24T01:21:37;100114.53;;;6.94;100.00
62124;BME280;48110;47.532;19.078;2023-02-24T01:24:45;100115.97;;;6.88;100.00
62124;BME280;48110;47.532;19.078;2023-02-24T01:27:53;100101.72;;;6.81;100.00
62124;BME280;48110;47.532;19.078;2023-02-24T01:31:03;100100.31;;;6.87;100.00
62124;BME280;48110;47.532;19.078;2023-02-24T01:34:09;100091.72;;;6.85;100.00
62124;BME280;48110;47.532;19.078;2023-02-24T01:37:18;100089.38;;;6.82;100.00
62124;BME280;48110;47.532;19.078;2023-02-24T01:40:25;100070.63;;;6.85;100.00
62124;BME280;48110;47.532;19.078;2023-02-24T01:43:31;100073.94;;;6.87;100.00
62124;BME280;48110;47.532;19.078;2023-02-24T01:46:41;100071.44;;;6.85;100.00
62124;BME280;48110;47.532;19.078;2023-02-24T01:49:52;100066.16;;;6.85;100.00
62124;BME280;48110;47.532;19.078;2023-02-24T01:53:01;100059.38;;;6.83;100.00
62124;BME280;48110;47.532;19.078;2023-02-24T01:56:14;100067.97;;;6.85;100.00
62124;BME280;48110;47.532;19.078;2023-02-24T01:59:21;100061.94;;;6.92;100.00
62124;BME280;48110;47.532;19.078;2023-02-24T02:02:28;100053.22;;;6.92;100.00
62124;BME280;48110;47.532;19.078;2023-02-24T02:05:36;100047.41;;;6.88;100.00
62124;BME280;48110;47.532;19.078;2023-02-24T02:08:43;100052.16;;;6.85;100.00
62124;BME280;48110;47.532;19.078;2023-02-24T02:11:52;100055.31;;;6.88;100.00
62124;BME280;48110;47.532;19.078;2023-02-24T02:15:01;100047.25;;;6.90;100.00
62124;BME280;48110;47.532;19.078;2023-02-24T02:18:28;100042.28;;;6.87;100.00
62124;BME280;48110;47.532;19.078;2023-02-24T02:40:55;100019.81;;;6.83;100.00
62124;BME280;48110;47.532;19.078;2023-02-24T02:47:26;100022.91;;;6.96;100.00
62124;BME280;48110;47.532;19.078;2023-02-24T02:50:47;100012.66;;;6.93;100.00
62124;BME280;48110;47.532;19.078;2023-02-24T02:54:08;100011.91;;;7.01;100.00
62124;BME280;48110;47.532;19.078;2023-02-24T02:57:22;100005.72;;;7.10;100.00
62124;BME280;48110;47.532;19.078;2023-02-24T03:00:31;100004.16;;;6.99;100.00
62124;BME280;48110;47.532;19.078;2023-02-24T03:04:01;99999.22;;;7.04;100.00
62124;BME280;48110;47.532;19.078;2023-02-24T03:07:11;99990.72;;;7.10;100.00
62124;BME280;48110;47.532;19.078;2023-02-24T03:10:27;99994.31;;;7.09;100.00
62124;BME280;48110;47.532;19.078;2023-02-24T03:13:36;99995.91;;;7.02;100.00
62124;BME280;48110;47.532;19.078;2023-02-24T03:16:45;99991.94;;;6.98;100.00
62124;BME280;48110;47.532;19.078;2023-02-24T03:20:02;99985.81;;;6.97;100.00
62124;BME280;48110;47.532;19.078;2023-02-24T03:23:25;99980.41;;;6.99;100.00
62124;BME280;48110;47.532;19.078;2023-02-24T03:26:46;99976.06;;;6.90;100.00
62124;BME280;48110;47.532;19.078;2023-02-24T03:29:56;99972.97;;;6.94;100.00
62124;BME280;48110;47.532;19.078;2023-02-24T03:33:11;99982.53;;;6.95;100.00
62124;BME280;48110;47.532;19.078;2023-02-24T03:36:23;99977.41;;;6.94;100.00
62124;BME280;48110;47.532;19.078;2023-02-24T03:39:30;99973.88;;;6.85;100.00
62124;BME280;48110;47.532;19.078;2023-02-24T03:42:37;99971.16;;;6.95;100.00
62124;BME280;48110;47.532;19.078;2023-02-24T03:45:48;99963.03;;;6.88;100.00
62124;BME280;48110;47.532;19.078;2023-02-24T03:49:05;99967.62;;;6.86;100.00
62124;BME280;48110;47.532;19.078;2023-02-24T03:55:42;99956.56;;;6.83;100.00
62124;BME280;48110;47.532;19.078;2023-02-24T04:02:19;99960.84;;;6.84;100.00
62124;BME280;48110;47.532;19.078;2023-02-24T04:05:28;99953.91;;;6.83;100.00
62124;BME280;48110;47.532;19.078;2023-02-24T04:08:46;99947.66;;;6.84;100.00
62124;BME280;48110;47.532;19.078;2023-02-24T04:18:21;99937.59;;;6.79;100.00
62124;BME280;48110;47.532;19.078;2023-02-24T04:21:31;99924.87;;;6.75;100.00
62124;BME280;48110;47.532;19.078;2023-02-24T04:24:42;99927.66;;;6.73;100.00
62124;BME280;48110;47.532;19.078;2023-02-24T04:27:55;99924.31;;;6.89;100.00
62124;BME280;48110;47.532;19.078;2023-02-24T04:31:06;99921.47;;;6.82;100.00
62124;BME280;48110;47.532;19.078;2023-02-24T04:34:16;99902.94;;;6.74;100.00
62124;BME280;48110;47.532;19.078;2023-02-24T04:37:26;99920.66;;;6.82;100.00
62124;BME280;48110;47.532;19.078;2023-02-24T04:40:38;99913.34;;;6.76;100.00
62124;BME280;48110;47.532;19.078;2023-02-24T04:43:48;99904.25;;;6.70;100.00
62124;BME280;48110;47.532;19.078;2023-02-24T04:47:00;99910.72;;;6.76;100.00
62124;BME280;48110;47.532;19.078;2023-02-24T04:50:12;99900.03;;;6.77;100.00
62124;BME280;48110;47.532;19.078;2023-02-24T04:53:28;99892.13;;;6.77;100.00
62124;BME280;48110;47.532;19.078;2023-02-24T04:56:38;99893.22;;;6.75;100.00
62124;BME280;48110;47.532;19.078;2023-02-24T04:59:46;99886.31;;;6.74;100.00
62124;BME280;48110;47.532;19.078;2023-02-24T05:02:56;99875.59;;;6.75;100.00
62124;BME280;48110;47.532;19.078;2023-02-24T05:06:04;99881.03;;;6.74;100.00
62124;BME280;48110;47.532;19.078;2023-02-24T05:09:15;99876.75;;;6.73;100.00
62124;BME280;48110;47.532;19.078;2023-02-24T05:12:24;99879.59;;;6.79;100.00
62124;BME280;48110;47.532;19.078;2023-02-24T05:15:32;99880.19;;;6.73;100.00
62124;BME280;48110;47.532;19.078;2023-02-24T05:18:42;99872.28;;;6.73;100.00
62124;BME280;48110;47.532;19.078;2023-02-24T05:21:54;99876.06;;;6.71;100.00
62124;BME280;48110;47.532;19.078;2023-02-24T05:25:03;99863.87;;;6.70;100.00
62124;BME280;48110;47.532;19.078;2023-02-24T05:28:09;99864.91;;;6.77;100.00
62124;BME280;48110;47.532;19.078;2023-02-24T05:31:18;99864.59;;;6.80;100.00
62124;BME280;48110;47.532;19.078;2023-02-24T05:34:27;99866.25;;;6.81;100.00
62124;BME280;48110;47.532;19.078;2023-02-24T05:37:38;99855.22;;;6.77;100.00
62124;BME280;48110;47.532;19.078;2023-02-24T05:40:49;99855.22;;;6.77;100.00
62124;BME280;48110;47.532;19.078;2023-02-24T05:44:03;99849.75;;;6.79;100.00
62124;BME280;48110;47.532;19.078;2023-02-24T05:47:12;99849.09;;;6.77;100.00
62124;BME280;48110;47.532;19.078;2023-02-24T05:50:20;99843.28;;;6.73;100.00
62124;BME280;48110;47.532;19.078;2023-02-24T05:53:31;99846.94;;;6.72;100.00
62124;BME280;48110;47.532;19.078;2023-02-24T05:56:40;99849.75;;;6.79;100.00
62124;BME280;48110;47.532;19.078;2023-02-24T05:59:49;99850.59;;;6.79;100.00
62124;BME280;48110;47.532;19.078;2023-02-24T06:02:57;99844.12;;;6.74;100.00
62124;BME280;48110;47.532;19.078;2023-02-24T06:06:14;99853.69;;;6.75;100.00
62124;BME280;48110;47.532;19.078;2023-02-24T06:09:19;99855.22;;;6.77;100.00
62124;BME280;48110;47.532;19.078;2023-02-24T06:12:27;99847.78;;;6.73;100.00
62124;BME280;48110;47.532;19.078;2023-02-24T06:15:37;99848.94;;;6.78;100.00
62124;BME280;48110;47.532;19.078;2023-02-24T06:18:48;99846.00;;;6.81;100.00
62124;BME280;48110;47.532;19.078;2023-02-24T06:21:55;99845.16;;;6.81;100.00
62124;BME280;48110;47.532;19.078;2023-02-24T06:25:01;99852.12;;;6.90;100.00
62124;BME280;48110;47.532;19.078;2023-02-24T06:28:09;99851.16;;;6.91;100.00
62124;BME280;48110;47.532;19.078;2023-02-24T06:31:17;99861.03;;;6.89;100.00
62124;BME280;48110;47.532;19.078;2023-02-24T06:34:24;99857.75;;;6.95;100.00
62124;BME280;48110;47.532;19.078;2023-02-24T06:37:31;99858.13;;;7.00;100.00
62124;BME280;48110;47.532;19.078;2023-02-24T06:40:36;99862.94;;;7.13;100.00
62124;BME280;48110;47.532;19.078;2023-02-24T06:43:42;99853.31;;;6.95;100.00
62124;BME280;48110;47.532;19.078;2023-02-24T06:46:48;99850.34;;;6.98;100.00
62124;BME280;48110;47.532;19.078;2023-02-24T06:49:54;99848.87;;;6.96;100.00
62124;BME280;48110;47.532;19.078;2023-02-24T06:52:58;99841.63;;;6.98;100.00
62124;BME280;48110;47.532;19.078;2023-02-24T06:56:05;99842.91;;;6.94;100.00
62124;BME280;48110;47.532;19.078;2023-02-24T06:59:17;99841.97;;;7.03;100.00
62124;BME280;48110;47.532;19.078;2023-02-24T07:02:26;99835.75;;;7.12;100.00
62124;BME280;48110;47.532;19.078;2023-02-24T07:05:43;99823.56;;;7.19;100.00
62124;BME280;48110;47.532;19.078;2023-02-24T07:08:54;99824.78;;;7.33;100.00
62124;BME280;48110;47.532;19.078;2023-02-24T07:12:00;99813.50;;;7.15;100.00
62124;BME280;48110;47.532;19.078;2023-02-24T07:15:07;99807.91;;;7.18;100.00
62124;BME280;48110;47.532;19.078;2023-02-24T07:18:12;99814.34;;;7.15;100.00
62124;BME280;48110;47.532;19.078;2023-02-24T07:21:18;99810.53;;;7.18;100.00
62124;BME280;48110;47.532;19.078;2023-02-24T07:24:27;99809.69;;;7.09;100.00
62124;BME280;48110;47.532;19.078;2023-02-24T07:27:41;99809.56;;;7.19;100.00
62124;BME280;48110;47.532;19.078;2023-02-24T07:30:48;99807.69;;;7.53;100.00
62124;BME280;48110;47.532;19.078;2023-02-24T07:33:58;99807.34;;;7.48;100.00
62124;BME280;48110;47.532;19.078;2023-02-24T07:37:04;99805.72;;;7.71;100.00
62124;BME280;48110;47.532;19.078;2023-02-24T07:40:11;99799.62;;;7.79;100.00
62124;BME280;48110;47.532;19.078;2023-02-24T07:43:22;99799.78;;;8.10;100.00
62124;BME280;48110;47.532;19.078;2023-02-24T07:46:27;99796.50;;;8.32;100.00
62124;BME280;48110;47.532;19.078;2023-02-24T07:49:32;99790.88;;;8.03;100.00
62124;BME280;48110;47.532;19.078;2023-02-24T07:52:36;99795.66;;;7.99;100.00
62124;BME280;48110;47.532;19.078;2023-02-24T07:55:39;99790.53;;;8.22;100.00
62124;BME280;48110;47.532;19.078;2023-02-24T07:58:46;99790.53;;;8.22;100.00
62124;BME280;48110;47.532;19.078;2023-02-24T08:01:53;99784.91;;;8.49;100.00
62124;BME280;48110;47.532;19.078;2023-02-24T08:05:00;99777.31;;;8.46;100.00
62124;BME280;48110;47.532;19.078;2023-02-24T08:08:06;99777.44;;;8.53;100.00
62124;BME280;48110;47.532;19.078;2023-02-24T08:11:13;99782.94;;;8.51;100.00
62124;BME280;48110;47.532;19.078;2023-02-24T08:14:18;99785.38;;;8.53;100.00
62124;BME280;48110;47.532;19.078;2023-02-24T08:17:24;99780.31;;;8.35;100.00
62124;BME280;48110;47.532;19.078;2023-02-24T08:20:30;99780.41;;;8.58;100.00
62124;BME280;48110;47.532;19.078;2023-02-24T08:24:14;99772.16;;;8.61;100.00
62124;BME280;48110;47.532;19.078;2023-02-24T08:27:24;99778.41;;;8.76;100.00
62124;BME280;48110;47.532;19.078;2023-02-24T08:30:33;99769.78;;;9.13;100.00
62124;BME280;48110;47.532;19.078;2023-02-24T08:33:43;99768.97;;;9.43;100.00
62124;BME280;48110;47.532;19.078;2023-02-24T08:36:50;99766.97;;;9.91;100.00
62124;BME280;48110;47.532;19.078;2023-02-24T08:39:59;99766.72;;;10.38;99.12
62124;BME280;48110;47.532;19.078;2023-02-24T08:43:06;99758.66;;;10.90;95.10
62124;BME280;48110;47.532;19.078;2023-02-24T08:46:23;99749.91;;;11.68;88.45
62124;BME280;48110;47.532;19.078;2023-02-24T08:49:39;99749.72;;;11.48;89.26
62124;BME280;48110;47.532;19.078;2023-02-24T08:52:43;99751.53;;;10.76;94.86
62124;BME280;48110;47.532;19.078;2023-02-24T08:55:48;99741.84;;;10.39;97.71
62124;BME280;48110;47.532;19.078;2023-02-24T08:58:57;99745.09;;;9.89;100.00
62124;BME280;48110;47.532;19.078;2023-02-24T09:02:13;99744.34;;;9.80;100.00
62124;BME280;48110;47.532;19.078;2023-02-24T09:05:20;99731.56;;;9.84;100.00
62124;BME280;48110;47.532;19.078;2023-02-24T09:08:26;99729.38;;;9.73;100.00
62124;BME280;48110;47.532;19.078;2023-02-24T09:11:34;99730.75;;;9.83;100.00
62124;BME280;48110;47.532;19.078;2023-02-24T09:14:38;99724.47;;;9.99;100.00
62124;BME280;48110;47.532;19.078;2023-02-24T09:17:41;99730.31;;;9.94;100.00
62124;BME280;48110;47.532;19.078;2023-02-24T09:20:49;99716.00;;;10.03;100.00
62124;BME280;48110;47.532;19.078;2023-02-24T09:23:59;99716.06;;;9.95;100.00
62124;BME280;48110;47.532;19.078;2023-02-24T09:27:06;99711.94;;;10.16;100.00
62124;BME280;48110;47.532;19.078;2023-02-24T09:30:10;99701.25;;;10.53;100.00
62124;BME280;48110;47.532;19.078;2023-02-24T09:33:35;99696.03;;;10.30;100.00
62124;BME280;48110;47.532;19.078;2023-02-24T09:36:44;99699.25;;;10.55;100.00
62124;BME280;48110;47.532;19.078;2023-02-24T09:40:04;99690.53;;;10.61;99.43
62124;BME280;48110;47.532;19.078;2023-02-24T09:43:19;99689.91;;;10.44;98.78
62124;BME280;48110;47.532;19.078;2023-02-24T09:46:26;99689.44;;;10.41;98.51
62124;BME280;48110;47.532;19.078;2023-02-24T09:49:32;99688.16;;;10.66;97.65
62124;BME280;48110;47.532;19.078;2023-02-24T09:52:47;99688.87;;;11.11;95.77
62124;BME280;48110;47.532;19.078;2023-02-24T09:55:59;99681.06;;;11.45;94.05
62124;BME280;48110;47.532;19.078;2023-02-24T09:59:12;99676.62;;;11.73;90.68
62124;BME280;48110;47.532;19.078;2023-02-24T10:02:36;99666.06;;;11.80;90.57
62124;BME280;48110;47.532;19.078;2023-02-24T10:05:43;99668.75;;;12.14;85.43
62124;BME280;48110;47.532;19.078;2023-02-24T10:09:12;99663.78;;;12.05;86.17
62124;BME280;48110;47.532;19.078;2023-02-24T10:12:21;99661.12;;;11.77;88.36
62124;BME280;48110;47.532;19.078;2023-02-24T10:15:31;99659.63;;;12.30;85.06
62124;BME280;48110;47.532;19.078;2023-02-24T10:22:22;99652.13;;;11.78;90.39
62124;BME280;48110;47.532;19.078;2023-02-24T10:31:58;99633.97;;;12.16;86.50
62124;BME280;48110;47.532;19.078;2023-02-24T10:35:14;99617.84;;;12.17;86.01
62124;BME280;48110;47.532;19.078;2023-02-24T10:38:20;99612.50;;;12.58;83.79
62124;BME280;48110;47.532;19.078;2023-02-24T10:41:27;99612.41;;;12.99;80.68
62124;BME280;48110;47.532;19.078;2023-02-24T10:44:33;99609.63;;;12.53;83.57
62124;BME280;48110;47.532;19.078;2023-02-24T10:47:43;99606.66;;;13.02;83.21
62124;BME280;48110;47.532;19.078;2023-02-24T10:50:49;99588.28;;;13.47;76.24
62124;BME280;48110;47.532;19.078;2023-02-24T10:54:04;99593.22;;;13.50;75.39
62124;BME280;48110;47.532;19.078;2023-02-24T10:57:30;99583.19;;;13.59;74.39
62124;BME280;48110;47.532;19.078;2023-02-24T11:00:53;99576.66;;;14.25;70.91
62124;BME280;48110;47.532;19.078;2023-02-24T11:04:16;99574.87;;;14.64;70.09
62124;BME280;48110;47.532;19.078;2023-02-24T11:07:37;99570.03;;;15.42;66.75
62124;BME280;48110;47.532;19.078;2023-02-24T11:11:00;99556.00;;;15.21;65.42
62124;BME280;48110;47.532;19.078;2023-02-24T11:14:14;99548.53;;;15.30;66.11
62124;BME280;48110;47.532;19.078;2023-02-24T11:17:53;99551.94;;;14.88;67.32
62124;BME280;48110;47.532;19.078;2023-02-24T11:21:01;99546.66;;;15.06;64.88
62124;BME280;48110;47.532;19.078;2023-02-24T11:24:06;99536.19;;;14.28;67.37
62124;BME280;48110;47.532;19.078;2023-02-24T11:27:17;99527.22;;;15.73;62.92
62124;BME280;48110;47.532;19.078;2023-02-24T11:33:58;99528.91;;;21.09;45.66
62124;BME280;48110;47.532;19.078;2023-02-24T11:37:11;99522.50;;;21.15;45.39
62124;BME280;48110;47.532;19.078;2023-02-24T11:43:25;99509.19;;;22.39;40.77
62124;BME280;48110;47.532;19.078;2023-02-24T11:46:36;99503.09;;;19.72;46.61
62124;BME280;48110;47.532;19.078;2023-02-24T11:49:44;99500.13;;;22.03;41.64
62124;BME280;48110;47.532;19.078;2023-02-24T11:52:48;99493.62;;;23.27;39.69
62124;BME280;48110;47.532;19.078;2023-02-24T11:55:55;99492.56;;;23.23;39.58
62124;BME280;48110;47.532;19.078;2023-02-24T12:02:30;99479.56;;;23.15;39.06
62124;BME280;48110;47.532;19.078;2023-02-24T12:05:40;99481.25;;;22.14;41.32
62124;BME280;48110;47.532;19.078;2023-02-24T12:08:48;99474.41;;;22.73;40.33
62124;BME280;48110;47.532;19.078;2023-02-24T12:11:59;99460.72;;;21.13;43.17
62124;BME280;48110;47.532;19.078;2023-02-24T12:21:35;99448.91;;;21.66;42.27
62124;BME280;48110;47.532;19.078;2023-02-24T12:24:41;99441.78;;;21.08;42.89
62124;BME280;48110;47.532;19.078;2023-02-24T12:28:03;99432.56;;;20.19;44.54
62124;BME280;48110;47.532;19.078;2023-02-24T12:43:37;99411.78;;;16.47;56.13
62124;BME280;48110;47.532;19.078;2023-02-24T12:46:45;99413.84;;;16.75;55.65
62124;BME280;48110;47.532;19.078;2023-02-24T12:49:57;99403.00;;;16.59;56.21
62124;BME280;48110;47.532;19.078;2023-02-24T12:59:19;99391.37;;;15.20;62.95
62124;BME280;48110;47.532;19.078;2023-02-24T13:02:33;99390.00;;;14.93;64.04
62124;BME280;48110;47.532;19.078;2023-02-24T13:06:35;99390.78;;;15.00;63.54
62124;BME280;48110;47.532;19.078;2023-02-24T13:09:19;99372.28;;;14.99;64.04
62124;BME280;48110;47.532;19.078;2023-02-24T13:12:38;99374.34;;;14.54;65.40
62124;BME280;48110;47.532;19.078;2023-02-24T13:15:52;99372.78;;;14.71;65.44
62124;BME280;48110;47.532;19.078;2023-02-24T13:19:05;99364.75;;;14.96;64.61
62124;BME280;48110;47.532;19.078;2023-02-24T13:25:18;99356.28;;;14.99;61.23
62124;BME280;48110;47.532;19.078;2023-02-24T13:28:25;99352.66;;;14.68;62.64
62124;BME280;48110;47.532;19.078;2023-02-24T13:31:49;99350.66;;;14.64;63.05
62124;BME280;48110;47.532;19.078;2023-02-24T13:34:54;99353.56;;;14.31;64.85
62124;BME280;48110;47.532;19.078;2023-02-24T13:38:06;99336.34;;;14.27;65.32
62124;BME280;48110;47.532;19.078;2023-02-24T13:41:33;99337.63;;;13.86;67.39
62124;BME280;48110;47.532;19.078;2023-02-24T13:44:36;99335.56;;;14.20;66.75
62124;BME280;48110;47.532;19.078;2023-02-24T13:54:22;99338.31;;;14.63;64.65
62124;BME280;48110;47.532;19.078;2023-02-24T14:03:45;99317.47;;;14.53;62.88
62124;BME280;48110;47.532;19.078;2023-02-24T14:06:53;99320.44;;;14.88;61.33
62124;BME280;48110;47.532;19.078;2023-02-24T14:10:01;99311.44;;;14.83;60.20
62124;BME280;48110;47.532;19.078;2023-02-24T14:13:14;99310.94;;;14.92;59.63
62124;BME280;48110;47.532;19.078;2023-02-24T14:16:28;99310.81;;;15.05;57.83
62124;BME280;48110;47.532;19.078;2023-02-24T14:19:34;99312.06;;;15.03;57.41
62124;BME280;48110;47.532;19.078;2023-02-24T14:22:46;99307.78;;;14.77;58.00
62124;BME280;48110;47.532;19.078;2023-02-24T14:25:58;99304.03;;;14.42;58.56
62124;BME280;48110;47.532;19.078;2023-02-24T14:29:02;99294.56;;;14.14;59.09
62124;BME280;48110;47.532;19.078;2023-02-24T14:32:18;99290.19;;;14.26;59.09
62124;BME280;48110;47.532;19.078;2023-02-24T14:38:39;99287.59;;;14.45;58.28
62124;BME280;48110;47.532;19.078;2023-02-24T14:41:44;99282.03;;;14.46;58.38
62124;BME280;48110;47.532;19.078;2023-02-24T14:44:50;99279.03;;;14.61;59.05
62124;BME280;48110;47.532;19.078;2023-02-24T14:47:55;99275.44;;;14.49;59.44
62124;BME280;48110;47.532;19.078;2023-02-24T14:54:10;99263.47;;;14.08;60.50
62124;BME280;48110;47.532;19.078;2023-02-24T14:57:27;99263.53;;;14.20;61.31
62124;BME280;48110;47.532;19.078;2023-02-24T15:00:45;99255.41;;;14.33;59.33
62124;BME280;48110;47.532;19.078;2023-02-24T15:03:54;99246.66;;;13.76;60.62
62124;BME280;48110;47.532;19.078;2023-02-24T15:07:03;99243.00;;;13.71;61.01
62124;BME280;48110;47.532;19.078;2023-02-24T15:10:19;99235.88;;;13.89;61.31
62124;BME280;48110;47.532;19.078;2023-02-24T15:13:28;99237.47;;;13.97;60.71
62124;BME280;48110;47.532;19.078;2023-02-24T15:19:43;99226.50;;;13.56;62.04
62124;BME280;48110;47.532;19.078;2023-02-24T15:22:58;99219.12;;;13.51;63.18
62124;BME280;48110;47.532;19.078;2023-02-24T15:26:04;99220.25;;;13.37;63.21
62124;BME280;48110;47.532;19.078;2023-02-24T15:29:13;99217.75;;;13.42;63.33
62124;BME280;48110;47.532;19.078;2023-02-24T15:32:20;99211.22;;;13.44;63.69
62124;BME280;48110;47.532;19.078;2023-02-24T15:35:25;99208.56;;;13.38;63.54
62124;BME280;48110;47.532;19.078;2023-02-24T15:38:34;99197.34;;;13.36;64.02
62124;BME280;48110;47.532;19.078;2023-02-24T15:41:42;99197.38;;;13.29;65.23
62124;BME280;48110;47.532;19.078;2023-02-24T15:44:56;99192.28;;;13.21;65.02
62124;BME280;48110;47.532;19.078;2023-02-24T15:48:15;99190.41;;;13.22;64.89
62124;BME280;48110;47.532;19.078;2023-02-24T15:54:31;99190.66;;;13.20;65.48
62124;BME280;48110;47.532;19.078;2023-02-24T15:57:39;99196.22;;;13.05;66.09
62124;BME280;48110;47.532;19.078;2023-02-24T16:00:46;99192.13;;;13.03;66.54
62124;BME280;48110;47.532;19.078;2023-02-24T16:03:56;99185.59;;;12.99;67.17
62124;BME280;48110;47.532;19.078;2023-02-24T16:07:02;99188.31;;;12.92;67.33
62124;BME280;48110;47.532;19.078;2023-02-24T16:10:14;99188.34;;;12.86;68.36
62124;BME280;48110;47.532;19.078;2023-02-24T16:13:21;99182.03;;;12.74;68.87
62124;BME280;48110;47.532;19.078;2023-02-24T16:16:28;99169.97;;;12.64;69.93
62124;BME280;48110;47.532;19.078;2023-02-24T16:19:32;99169.84;;;12.53;70.90
62124;BME280;48110;47.532;19.078;2023-02-24T16:22:37;99166.22;;;12.34;72.64
62124;BME280;48110;47.532;19.078;2023-02-24T16:25:43;99161.31;;;12.25;74.20
62124;BME280;48110;47.532;19.078;2023-02-24T16:28:54;99158.66;;;12.25;74.14
62124;BME280;48110;47.532;19.078;2023-02-24T16:32:01;99153.78;;;12.15;75.61
62124;BME280;48110;47.532;19.078;2023-02-24T16:35:07;99149.28;;;12.02;76.48
62124;BME280;48110;47.532;19.078;2023-02-24T16:38:14;99137.22;;;12.00;76.83
62124;BME280;48110;47.532;19.078;2023-02-24T16:41:21;99127.44;;;12.00;76.60
62124;BME280;48110;47.532;19.078;2023-02-24T16:44:29;99127.22;;;11.82;77.66
62124;BME280;48110;47.532;19.078;2023-02-24T16:47:37;99127.41;;;11.67;79.55
62124;BME280;48110;47.532;19.078;2023-02-24T16:50:43;99118.63;;;11.67;80.18
62124;BME280;48110;47.532;19.078;2023-02-24T16:53:52;99117.41;;;11.56;80.60
62124;BME280;48110;47.532;19.078;2023-02-24T16:56:58;99120.28;;;11.61;80.22
62124;BME280;48110;47.532;19.078;2023-02-24T17:00:06;99108.81;;;11.48;81.09
62124;BME280;48110;47.532;19.078;2023-02-24T17:03:20;99112.91;;;11.50;80.97
62124;BME280;48110;47.532;19.078;2023-02-24T17:06:28;99100.88;;;11.41;81.32
62124;BME280;48110;47.532;19.078;2023-02-24T17:09:33;99114.72;;;11.23;82.62
62124;BME280;48110;47.532;19.078;2023-02-24T17:12:42;99110.66;;;11.34;82.53
62124;BME280;48110;47.532;19.078;2023-02-24T17:15:49;99111.06;;;11.24;82.36
62124;BME280;48110;47.532;19.078;2023-02-24T17:19:01;99101.47;;;11.17;83.70
62124;BME280;48110;47.532;19.078;2023-02-24T17:22:11;99108.81;;;11.08;84.56
62124;BME280;48110;47.532;19.078;2023-02-24T17:25:24;99098.38;;;11.20;84.30
62124;BME280;48110;47.532;19.078;2023-02-24T17:28:32;99097.12;;;10.96;86.11
62124;BME280;48110;47.532;19.078;2023-02-24T17:31:40;99090.81;;;11.04;85.50
62124;BME280;48110;47.532;19.078;2023-02-24T17:34:49;99088.56;;;11.01;85.45
62124;BME280;48110;47.532;19.078;2023-02-24T17:37:58;99089.00;;;11.11;85.06
62124;BME280;48110;47.532;19.078;2023-02-24T17:41:06;99090.00;;;10.97;86.61
62124;BME280;48110;47.532;19.078;2023-02-24T17:44:13;99088.75;;;10.79;88.75
62124;BME280;48110;47.532;19.078;2023-02-24T17:47:22;99089.91;;;10.70;88.67
62124;BME280;48110;47.532;19.078;2023-02-24T17:50:28;99092.31;;;10.52;91.11
62124;BME280;48110;47.532;19.078;2023-02-24T17:53:34;99083.75;;;10.57;89.94
62124;BME280;48110;47.532;19.078;2023-02-24T17:56:42;99083.75;;;10.57;90.25
62124;BME280;48110;47.532;19.078;2023-02-24T17:59:50;99082.34;;;10.61;89.46
62124;BME280;48110;47.532;19.078;2023-02-24T18:03:01;99074.81;;;10.71;87.57
62124;BME280;48110;47.532;19.078;2023-02-24T18:06:10;99066.69;;;10.72;87.59
62124;BME280;48110;47.532;19.078;2023-02-24T18:09:18;99055.87;;;10.80;86.53
62124;BME280;48110;47.532;19.078;2023-02-24T18:12:28;99059.78;;;10.91;85.21
62124;BME280;48110;47.532;19.078;2023-02-24T18:15:33;99050.41;;;10.88;85.89
62124;BME280;48110;47.532;19.078;2023-02-24T18:18:42;99039.38;;;10.92;85.28
62124;BME280;48110;47.532;19.078;2023-02-24T18:21:50;99030.78;;;10.96;84.99